Terminal Aerodrome Forecast
Issued by NWS Sterling, VA

Home | Current Version | Previous Version | Text Only | Print | Product List | Glossary On
Versions: 1 2 3 4 5 6 7 8 9 10 11 12 13 14 15 16 17 18 19 20 21 22 23 24 25 26
000
FTUS41 KLWX 202320
TAFBWI
TAF
KBWI 202320Z 2100/2206 30004KT P6SM BKN050
     FM210200 32004KT P6SM SCT250
     FM211000 03004KT P6SM SCT100
     FM211700 09004KT P6SM SCT120
     FM220100 13004KT P6SM BKN100=

USA.gov is the U.S. government's official web portal to all federal, state and local government web resources and services.